Eleele, HI

9:17 PM HST on August 01, 2014 (GMT -1000)
Lihue (PHLI) Elev 102 ft | 21.98 °N, 159.34 °W | Change Station

Current weather conditions updated 24 minutes ago

Scattered Clouds
Scattered Clouds
79 °F
Feels Like 79 °F
N
17
Wind Variable Wind from ENE

Tomorrow is forecast to be Cooler than today. Showers.

Today
High -- | Low -- °F
--% Chance of Precip.
Yesterday
High -- | Low -- °F
Precip. -- in
6:11 AM 7:18 PM
Waxing Crescent, 33% visible
Pressure 30.01 in
Visibility 10.0 miles
Clouds Scattered Clouds 2300 ft
Scattered Clouds 3300 ft
Dew Point 70 °F
Humidity 74%
Rainfall 0.00 in
Snow Depth Not available.
UV 0 out of 12
Pollen Not available.
Air Quality Not available.
Flu Activity Not available.
METAR PHLI 020653Z 07015KT 10SM SCT023 SCT033 26/21 A3002 RMK AO2 SLP162 T02610211 $

More Conditions Fewer Conditions

Pressure 30.01 in
Visibility 10.0 miles
Clouds Scattered Clouds 2300 ft
Scattered Clouds 3300 ft
Dew Point 70 °F
Humidity 74%
Rainfall 0.00 in
Snow Depth Not available.
UV 0 out of 12
Pollen Not available.
Air Quality Not available.
Flu Activity Not available.
METAR PHLI 020653Z 07015KT 10SM SCT023 SCT033 26/21 A3002 RMK AO2 SLP162 T02610211 $

More Conditions Fewer Conditions

10-Day Weather Forecast

Almanac

Astronomy

Aug. 01, 2014 Rise Set
Actual Time 6:11 AM HST 7:18 PM HST
Civil Twilight 5:47 AM HST 7:41 PM HST
Nautical Twilight 5:18 AM HST 8:10 PM HST
Astronomical Twilight 4:49 AM HST 8:39 PM HST
Moon 11:00 AM HST (8/1) 10:57 PM HST (8/1)
Length of Visible Light 13h 54m
Length of Day
13h 07m
Tomorrow will be 0m 57s shorter.
Waxing Crescent, 33% of the Moon is Illuminated
Aug 2
Waxing Crescent
Aug 3
First Quarter
Aug 10
Full
Aug 17
Last Quarter
Aug 25
New

Yesterday's Extremes

State Highs State Lows

Community

WunderPhotos

Upload Photos

1,739,830 photos uploaded!

Nearby

Snow Depth

Station Depth Elevation
No new snow has been reported.

Earthquake Activity

City Distance Mag. Time & Date
No recent earthquake activity has been reported nearby.
Minimum magnitude displayed is 2.5.

Coastal Water Temperatures

Place Temperature
No Stations Reporting

Nearby Weather Stations

Station Location Temp. Heat Index Dew Point Humidity Wind Precip. Elev Updated Type
Koloa Landing - Whaler's Cove, Koloa, HI 78.3 °F 81 °F 70 °F 75% ENE  at  4.5 mph 0.00 in / hr 25 ft 9:07 PM HST Rapid Fire
Wailua, Kapaa, HI 75.0 °F 74 °F 72 °F 91% East  at  3.8 mph 0.01 in / hr 355 ft 9:16 PM HST Rapid Fire
Kalihiwai Ridge, Kilauea, HI 74.9 °F 74 °F 72 °F 92% SE  at  0.0 mph 0.00 in / hr 300 ft 9:17 PM HST Rapid Fire

Show More Stations Show Fewer Stations